Accueil
METAR-TAF:

METAR-TAF

Aéroports :

Base aérienne 118 Mont-de-Marsan

Mont-De-Marsan, France

latitude: 43-55N, longitude: 000-30W, altitude: 62 m

Observation

Le bulletin a été fait il y a 35 minutes, à 12:30 UTC
Vent 7 kt de est, variant entre est/nord-est et sud/sud-est
Température 10°C
Humidité 76%
Pression 1009 hPa
Visibilité 10 km ou plus
pas de nuages en-dessous de 1500 mètres et pas de cumulonimbus.

METAR: LFBM 211230Z AUTO 10007KT 070V150 CAVOK 10/06 Q1009 NOSIG

Heure: 14:05 (13:05 UTC)

Prévision

Le bulletin a été fait il y a 5 heures et 5 minutes, à 08:00 UTC
Prévision valable du 21 à 09 UTC au 22 à 09 UTC
Vent 5 kt de est
Visibilité 10 km ou plus
Nuages fragmentés à une hauteur de 4500 ft
Temporairement
du 22 à 00 UTC au 22 à 09 UTC
Visibilité: 0800 m
bancs de brouillard

TAF: LFBM 210800Z 2109/2209 09005KT 9999 BKN045 TEMPO 2200/2209 0800 BCFG

Observations et prévisions météorologiques de plus de 4000 aéroports (messages METAR et TAF).

Les stations disponibles sont représentées par des disques jaunes et rouges sur la carte.

Passer la souris dessus pour voir le nom de la station.

Cliquer dessus pour voir les observations et prévisions météorologiques.

Pour changer de carte: cliquez sur les boutons verts avec une croix noire pour zoomer, sur le bouton vert avec un tiret pour effectuer un zoom arrière, ou sur les flèches vertes pour les cartes adjacentes.


METAR-TAF: